Andover, Virginia
Current Conditions -  °F | °C
As of 6:15 PM on Wednesday 26 Nov 2014 (Local Time) from KLNP Reporting Station
Broken Clouds Broken Clouds  
Wind Chill: 37°   Ceiling: 3500
Heat Index: 37°   Visibility: 10mi
Dew Point: 32°   Wind: 3mph
Humidity: 81%   Direction: 210°SSW
Pressure: 29.98"   Gusts: NA
Location:  36.92°N, 82.8°W
Report Text: KLNP 262315Z AUTO 21003KT 10SM BKN035 BKN042 BKN055 03/00 A2998 RMK AO2
Loading
Personal Weather Stations






























Interactive Weather Map New forecast layout! Learn more

10-Day Weather Forecast

Advertisements
Track Severe Weather on mobile